Time;durP1;ratioP1;P1;durP2;ratioP2;P2;SDS_P1;SDS_P2;PMS_P1;PMS_P2;Temp;Humidity;BMP_temperature;BMP_pressure;BME280_temperature;BME280_humidity;BME280_pressure;Samples;Min_cycle;Max_cycle;Signal;HPM_P1;HPM_P2
2023/05/12 00:00:22;;;;;;;6.63;6.13;;;13.40;99.90;;;;;;5071412;28;20171;-75
2023/05/12 00:02:48;;;;;;;8.00;7.30;;;13.40;99.90;;;;;;5064690;28;20450;-73
2023/05/12 00:05:14;;;;;;;6.83;6.33;;;13.40;99.90;;;;;;5056150;28;20209;-73
2023/05/12 00:07:40;;;;;;;6.30;5.80;;;13.30;99.90;;;;;;5075420;28;20412;-75
2023/05/12 00:10:06;;;;;;;7.60;6.90;;;13.40;99.90;;;;;;5080756;28;20424;-75
2023/05/12 00:12:32;;;;;;;7.77;6.27;;;13.40;99.90;;;;;;5075284;28;20562;-76
2023/05/12 00:14:58;;;;;;;6.70;6.20;;;13.40;99.90;;;;;;5087483;28;20424;-73
2023/05/12 00:17:25;;;;;;;7.37;6.60;;;13.30;99.90;;;;;;5095803;28;20166;-75
2023/05/12 00:19:51;;;;;;;6.57;5.97;;;13.30;99.90;;;;;;5081532;28;20654;-75
2023/05/12 00:22:17;;;;;;;7.70;7.00;;;13.30;99.90;;;;;;5094161;28;20442;-73
2023/05/12 00:24:43;;;;;;;7.93;6.80;;;13.30;99.90;;;;;;5075348;28;20189;-76
2023/05/12 00:27:08;;;;;;;6.67;6.07;;;13.30;99.90;;;;;;5074685;28;20214;-75
2023/05/12 00:29:35;;;;;;;7.40;6.80;;;13.30;99.90;;;;;;5057378;28;20174;-74
2023/05/12 00:32:01;;;;;;;6.70;6.00;;;13.30;99.90;;;;;;5073701;28;20209;-76
2023/05/12 00:34:27;;;;;;;8.20;6.27;;;13.30;99.90;;;;;;5075411;28;20784;-73
2023/05/12 00:36:53;;;;;;;7.07;6.47;;;13.30;99.90;;;;;;5075024;28;20416;-75
2023/05/12 00:39:19;;;;;;;7.10;6.40;;;13.20;99.90;;;;;;5074557;28;20894;-76
2023/05/12 00:41:46;;;;;;;6.63;6.03;;;13.20;99.90;;;;;;5073583;28;20440;-76
2023/05/12 00:44:12;;;;;;;6.53;6.03;;;13.20;99.90;;;;;;5074892;28;20558;-76
2023/05/12 00:46:38;;;;;;;7.03;6.43;;;13.10;99.90;;;;;;5060997;28;20527;-75
2023/05/12 00:49:04;;;;;;;9.33;6.47;;;13.20;99.90;;;;;;5094755;28;20428;-74
2023/05/12 00:51:30;;;;;;;7.70;6.90;;;13.20;99.90;;;;;;5091388;28;20419;-75
2023/05/12 00:53:57;;;;;;;8.47;6.50;;;13.20;99.90;;;;;;5056818;28;20824;-75
2023/05/12 00:56:23;;;;;;;6.93;6.13;;;13.20;99.90;;;;;;5056634;28;20410;-75
2023/05/12 00:58:48;;;;;;;5.63;5.13;;;13.20;99.90;;;;;;5074740;28;20393;-73
2023/05/12 01:01:14;;;;;;;7.53;6.60;;;13.20;99.90;;;;;;5055495;28;20402;-74
2023/05/12 01:03:40;;;;;;;6.57;6.07;;;13.20;99.90;;;;;;5057213;28;20294;-73
2023/05/12 01:06:21;;;;;;;7.07;6.37;;;13.20;99.90;;;;;;5074645;28;20534;-73
2023/05/12 01:08:47;;;;;;;6.20;5.70;;;13.20;99.90;;;;;;5093193;28;20423;-75
2023/05/12 01:11:13;;;;;;;6.93;6.20;;;13.20;99.90;;;;;;5078594;28;20437;-75
2023/05/12 01:13:40;;;;;;;6.30;5.70;;;13.20;99.90;;;;;;5092537;28;20431;-75
2023/05/12 01:16:08;;;;;;;7.10;6.50;;;13.10;99.90;;;;;;5093356;28;20490;-75
2023/05/12 01:18:37;;;;;;;7.43;6.73;;;13.10;99.90;;;;;;5074239;28;20818;-74
2023/05/12 01:21:04;;;;;;;7.00;6.37;;;13.20;99.90;;;;;;5073520;28;20411;-75
2023/05/12 01:23:35;;;;;;;11.60;6.53;;;13.20;99.90;;;;;;5075773;28;20451;-73
2023/05/12 01:26:06;;;;;;;7.37;6.23;;;13.10;99.90;;;;;;5056758;28;20489;-75
2023/05/12 01:28:43;;;;;;;7.50;6.60;;;13.10;99.90;;;;;;5061352;28;20412;-74
2023/05/12 01:31:09;;;;;;;6.30;5.80;;;13.10;99.90;;;;;;5056125;28;20470;-73
2023/05/12 01:33:35;;;;;;;7.33;6.67;;;13.20;99.90;;;;;;5073855;28;20441;-73
2023/05/12 01:36:01;;;;;;;7.00;6.30;;;13.20;99.90;;;;;;5073885;28;20462;-73
2023/05/12 01:38:27;;;;;;;7.37;6.70;;;13.20;99.90;;;;;;5074094;28;20367;-73
2023/05/12 01:40:53;;;;;;;7.00;6.50;;;13.20;99.90;;;;;;5072210;28;20866;-73
2023/05/12 01:43:26;;;;;;;7.07;6.40;;;13.20;99.90;;;;;;5073511;28;20452;-73
2023/05/12 01:45:52;;;;;;;7.93;7.23;;;13.20;99.90;;;;;;5055514;28;20259;-73
2023/05/12 01:48:18;;;;;;;8.57;6.00;;;13.20;99.90;;;;;;5092694;28;20429;-75
2023/05/12 01:50:58;;;;;;;6.53;6.10;;;13.20;99.90;;;;;;5093161;28;20180;-76
2023/05/12 01:53:36;;;;;;;6.17;5.60;;;13.20;99.90;;;;;;5074186;28;20979;-75
2023/05/12 01:56:01;;;;;;;9.60;6.83;;;13.20;99.90;;;;;;5072770;28;20427;-76
2023/05/12 01:58:27;;;;;;;7.20;6.60;;;13.20;99.90;;;;;;5073858;28;20928;-75
2023/05/12 02:00:56;;;;;;;6.53;6.00;;;13.20;99.90;;;;;;5054810;28;20422;-73
2023/05/12 02:03:22;;;;;;;7.00;6.40;;;13.20;99.90;;;;;;5072490;28;20443;-72
2023/05/12 02:05:50;;;;;;;6.47;5.93;;;13.20;99.90;;;;;;5093907;28;20488;-73
2023/05/12 02:08:16;;;;;;;11.40;6.33;;;13.20;99.90;;;;;;5058756;28;20416;-75
2023/05/12 02:11:06;;;;;;;8.70;5.90;;;13.20;99.90;;;;;;5071599;28;20828;-75
2023/05/12 02:13:33;;;;;;;7.00;6.30;;;13.20;99.90;;;;;;5073217;28;20925;-73
2023/05/12 02:15:59;;;;;;;7.17;6.57;;;13.20;99.90;;;;;;5093733;28;20403;-73
2023/05/12 02:18:26;;;;;;;7.00;6.40;;;13.20;99.90;;;;;;5075950;28;20427;-73
2023/05/12 02:20:52;;;;;;;6.77;6.17;;;13.20;99.90;;;;;;5072382;28;20409;-73
2023/05/12 02:23:18;;;;;;;7.33;5.60;;;13.30;99.90;;;;;;5058108;28;20472;-75
2023/05/12 02:25:45;;;;;;;6.87;6.17;;;13.20;99.90;;;;;;5071442;28;20464;-73
2023/05/12 02:28:11;;;;;;;7.90;7.10;;;13.30;99.90;;;;;;5073035;28;20427;-75
2023/05/12 02:30:37;;;;;;;6.30;5.80;;;13.30;99.90;;;;;;5072303;28;20404;-73
2023/05/12 02:33:04;;;;;;;6.87;6.17;;;13.20;99.90;;;;;;5088294;28;20193;-75
2023/05/12 02:35:33;;;;;;;6.60;6.00;;;13.20;99.90;;;;;;5074161;28;20422;-73
2023/05/12 02:37:58;;;;;;;7.00;6.40;;;13.20;99.90;;;;;;5059621;28;20422;-73
2023/05/12 02:40:24;;;;;;;6.60;6.10;;;13.20;99.90;;;;;;5072213;28;20396;-76
2023/05/12 02:42:50;;;;;;;9.70;6.33;;;13.20;99.90;;;;;;5073083;28;20444;-75
2023/05/12 02:45:16;;;;;;;9.10;6.33;;;13.20;99.90;;;;;;5073040;28;20448;-75
2023/05/12 02:47:42;;;;;;;7.00;6.50;;;13.20;99.90;;;;;;5069399;28;20488;-75
2023/05/12 02:50:08;;;;;;;7.47;6.77;;;13.20;99.90;;;;;;5086122;28;20454;-76
2023/05/12 02:52:34;;;;;;;6.67;6.07;;;13.20;99.90;;;;;;5072802;28;20197;-74
2023/05/12 02:55:00;;;;;;;8.20;6.20;;;13.20;99.90;;;;;;5072449;28;20894;-73
2023/05/12 02:57:31;;;;;;;10.60;8.60;;;13.20;99.90;;;;;;5065228;28;20181;-73
2023/05/12 02:59:57;;;;;;;6.93;6.23;;;13.20;99.90;;;;;;5092660;28;20687;-75
2023/05/12 03:02:23;;;;;;;7.00;6.40;;;13.20;99.90;;;;;;5081346;28;20446;-75
2023/05/12 03:04:49;;;;;;;7.53;6.00;;;13.20;99.90;;;;;;5054756;28;20444;-73
2023/05/12 03:07:15;;;;;;;9.93;7.20;;;13.20;99.90;;;;;;5072456;28;20524;-73
2023/05/12 03:09:41;;;;;;;6.50;6.00;;;13.20;99.90;;;;;;5072845;28;20175;-75
2023/05/12 03:12:07;;;;;;;7.10;6.57;;;13.20;99.90;;;;;;5070426;28;20432;-73
2023/05/12 03:14:33;;;;;;;8.27;7.47;;;13.20;99.90;;;;;;5072388;28;20177;-73
2023/05/12 03:17:17;;;;;;;6.87;6.27;;;13.20;99.90;;;;;;5072702;28;20466;-75
2023/05/12 03:19:43;;;;;;;6.87;5.80;;;13.20;99.90;;;;;;5085639;28;20166;-75
2023/05/12 03:22:09;;;;;;;7.70;6.90;;;13.20;99.90;;;;;;5052887;28;20440;-75
2023/05/12 03:24:35;;;;;;;7.63;7.03;;;13.20;99.90;;;;;;5071701;28;20280;-73
2023/05/12 03:27:01;;;;;;;6.87;6.27;;;13.20;99.90;;;;;;5072757;28;20417;-75
2023/05/12 03:29:27;;;;;;;6.93;6.40;;;13.20;99.90;;;;;;5072396;28;20405;-73
2023/05/12 03:31:52;;;;;;;8.10;7.40;;;13.20;99.90;;;;;;5070412;28;20177;-75
2023/05/12 03:34:18;;;;;;;7.43;6.83;;;13.20;99.90;;;;;;5072140;28;20205;-75
2023/05/12 03:36:44;;;;;;;7.80;7.10;;;13.20;99.90;;;;;;5092707;28;20177;-75
2023/05/12 03:39:12;;;;;;;6.13;5.53;;;13.20;99.90;;;;;;5092506;28;20181;-74
2023/05/12 03:41:38;;;;;;;8.60;6.90;;;13.20;99.90;;;;;;5094831;28;20407;-73
2023/05/12 03:44:17;;;;;;;7.40;6.70;;;13.20;99.90;;;;;;5075718;28;20439;-76
2023/05/12 03:46:43;;;;;;;8.57;6.30;;;13.20;99.90;;;;;;5076168;28;20158;-73
2023/05/12 03:49:09;;;;;;;8.17;6.83;;;13.20;99.90;;;;;;5076219;28;20406;-73
2023/05/12 03:51:35;;;;;;;7.00;6.50;;;13.20;99.90;;;;;;5074703;28;20228;-75
2023/05/12 03:54:01;;;;;;;8.10;7.40;;;13.20;99.90;;;;;;5068465;28;20201;-72
2023/05/12 03:56:30;;;;;;;7.53;6.93;;;13.20;99.90;;;;;;5076407;28;20173;-73
2023/05/12 03:58:56;;;;;;;8.23;6.87;;;13.20;99.90;;;;;;5081920;28;20178;-73
2023/05/12 04:01:22;;;;;;;8.30;6.50;;;13.20;99.90;;;;;;5075126;28;20471;-73
2023/05/12 04:04:09;;;;;;;6.87;6.10;;;13.20;99.90;;;;;;5058031;28;20535;-73
2023/05/12 04:06:38;;;;;;;8.17;7.47;;;13.20;99.90;;;;;;5082150;28;20242;-73
2023/05/12 04:09:04;;;;;;;7.67;7.00;;;13.20;99.90;;;;;;5095502;28;20744;-75
2023/05/12 04:11:30;;;;;;;7.67;7.07;;;13.30;99.90;;;;;;5071489;28;20420;-73
2023/05/12 04:13:56;;;;;;;8.10;7.50;;;13.30;99.90;;;;;;5074776;28;20198;-75
2023/05/12 04:16:21;;;;;;;7.47;6.47;;;13.30;99.90;;;;;;5074945;28;20171;-75
2023/05/12 04:18:48;;;;;;;6.00;5.60;;;13.30;99.90;;;;;;5075595;28;20397;-75
2023/05/12 04:21:33;;;;;;;8.77;7.80;;;13.40;99.90;;;;;;5074267;28;20496;-74
2023/05/12 04:24:01;;;;;;;10.27;7.23;;;13.40;99.90;;;;;;5075319;28;20394;-73
2023/05/12 04:26:27;;;;;;;6.50;6.10;;;13.40;99.90;;;;;;5077365;28;20459;-75
2023/05/12 04:29:12;;;;;;;6.80;6.30;;;13.40;99.90;;;;;;5078401;28;20463;-73
2023/05/12 04:31:38;;;;;;;8.17;7.37;;;13.50;99.90;;;;;;5078340;28;20653;-73
2023/05/12 04:34:16;;;;;;;7.50;6.80;;;13.50;99.90;;;;;;5095371;28;20428;-73
2023/05/12 04:36:42;;;;;;;7.67;7.00;;;13.60;99.90;;;;;;5090926;28;20162;-73
2023/05/12 04:39:08;;;;;;;7.87;7.17;;;13.60;99.90;;;;;;5075315;28;20905;-75
2023/05/12 04:44:37;;;;;;;7.90;7.20;;;13.80;99.90;;;;;;5060481;28;20458;-75
2023/05/12 04:47:03;;;;;;;7.67;7.07;;;13.80;99.90;;;;;;5074902;28;20390;-75
2023/05/12 04:49:28;;;;;;;7.20;6.60;;;13.90;99.90;;;;;;5075067;28;20959;-73
2023/05/12 04:51:55;;;;;;;7.30;6.70;;;13.90;99.90;;;;;;5077770;28;20412;-74
2023/05/12 04:54:23;;;;;;;7.27;6.57;;;14.00;99.90;;;;;;5095220;28;20634;-75
2023/05/12 04:56:49;;;;;;;8.73;8.00;;;14.00;99.90;;;;;;5080231;28;20500;-74
2023/05/12 04:59:15;;;;;;;9.07;8.17;;;14.00;99.90;;;;;;5095036;28;20403;-75
2023/05/12 05:01:46;;;;;;;7.33;6.70;;;14.10;99.90;;;;;;5056652;28;20232;-73
2023/05/12 05:04:12;;;;;;;7.97;7.17;;;14.10;99.90;;;;;;5073766;28;20460;-73
2023/05/12 05:06:38;;;;;;;7.57;6.80;;;14.10;99.90;;;;;;5074537;28;20416;-73
2023/05/12 05:09:07;;;;;;;12.73;6.53;;;14.10;99.90;;;;;;5074628;28;20466;-73
2023/05/12 05:11:33;;;;;;;7.93;6.60;;;14.00;99.90;;;;;;5070866;28;20785;-73
2023/05/12 05:13:59;;;;;;;10.73;6.50;;;14.00;99.90;;;;;;5064244;28;20449;-73
2023/05/12 05:16:25;;;;;;;7.53;6.93;;;14.00;99.90;;;;;;5071056;28;20431;-73
2023/05/12 05:19:39;;;;;;;10.30;7.50;;;14.00;99.90;;;;;;5071330;28;20482;-75
2023/05/12 05:22:05;;;;;;;7.53;6.90;;;14.10;99.90;;;;;;5038556;28;20432;-73
2023/05/12 05:24:47;;;;;;;7.83;7.07;;;14.20;99.90;;;;;;5054418;28;20448;-76
2023/05/12 05:27:13;;;;;;;7.10;6.50;;;14.20;99.90;;;;;;5060738;28;20195;-76
2023/05/12 05:29:42;;;;;;;8.27;7.47;;;14.20;99.90;;;;;;5054441;28;20963;-73
2023/05/12 05:32:22;;;;;;;7.37;6.67;;;14.20;99.90;;;;;;5069035;28;20460;-76
2023/05/12 05:34:48;;;;;;;6.53;6.03;;;14.30;99.90;;;;;;5053498;28;20424;-74
2023/05/12 05:37:14;;;;;;;7.87;7.17;;;14.50;99.90;;;;;;5080918;28;20423;-74
2023/05/12 05:40:08;;;;;;;11.13;7.30;;;14.60;99.90;;;;;;5094325;28;20427;-72
2023/05/12 05:43:10;;;;;;;7.87;7.10;;;14.70;99.90;;;;;;5084859;28;20435;-72
2023/05/12 05:45:48;;;;;;;8.10;7.30;;;14.60;99.90;;;;;;5075475;28;20463;-71
2023/05/12 05:48:42;;;;;;;8.37;7.57;;;14.60;99.90;;;;;;5069138;28;20424;-71
2023/05/12 05:51:10;;;;;;;8.60;7.80;;;14.60;93.80;;;;;;5069533;28;20420;-72
2023/05/12 05:53:36;;;;;;;8.87;7.90;;;14.60;93.70;;;;;;5073396;28;20864;-71
2023/05/12 05:59:26;;;;;;;7.83;7.17;;;14.50;93.70;;;;;;5053571;28;20431;-71
2023/05/12 06:02:22;;;;;;;8.40;7.60;;;14.50;91.60;;;;;;5078888;28;20447;-70
2023/05/12 06:08:46;;;;;;;9.27;7.87;;;14.50;93.70;;;;;;5030476;28;20474;-71
2023/05/12 06:11:12;;;;;;;8.13;7.53;;;14.50;93.70;;;;;;5071953;28;20890;-69
2023/05/12 06:13:53;;;;;;;9.70;7.93;;;14.50;90.90;;;;;;5072570;28;20479;-73
2023/05/12 06:16:19;;;;;;;9.10;8.13;;;14.60;89.40;;;;;;5093403;28;20467;-70
2023/05/12 06:18:45;;;;;;;7.80;7.10;;;14.70;88.00;;;;;;5090182;28;22098;-72
2023/05/12 06:21:11;;;;;;;7.33;6.63;;;14.70;82.90;;;;;;5065471;28;20459;-73
2023/05/12 06:23:47;;;;;;;8.87;8.07;;;14.80;83.00;;;;;;5047970;28;20443;-71
2023/05/12 06:26:13;;;;;;;8.40;7.60;;;15.00;86.10;;;;;;5064638;28;20497;-72
2023/05/12 06:28:39;;;;;;;10.40;7.27;;;15.00;79.60;;;;;;5073696;28;20445;-72
2023/05/12 06:34:33;;;;;;;8.03;6.83;;;15.10;27.50;;;;;;5065295;28;20407;-72
2023/05/12 06:36:58;;;;;;;8.13;7.33;;;15.20;20.80;;;;;;5056866;28;20613;-72
2023/05/12 06:39:24;;;;;;;7.60;6.90;;;15.20;20.60;;;;;;5045759;28;20525;-73
2023/05/12 06:41:50;;;;;;;8.07;6.87;;;15.20;10.30;;;;;;5051183;28;20220;-74
2023/05/12 06:44:16;;;;;;;7.40;6.80;;;15.30;4.00;;;;;;5056288;28;20619;-74
2023/05/12 06:46:42;;;;;;;7.60;6.90;;;15.40;5.90;;;;;;5073075;28;20405;-74
2023/05/12 06:49:08;;;;;;;7.47;6.77;;;15.40;3.80;;;;;;5054893;28;20466;-73
2023/05/12 06:51:35;;;;;;;8.90;6.83;;;15.50;1.00;;;;;;5049545;28;20186;-73
2023/05/12 06:54:01;;;;;;;11.73;7.97;;;15.50;1.00;;;;;;5072021;28;20448;-72
2023/05/12 06:56:28;;;;;;;7.87;6.63;;;15.60;1.00;;;;;;5054995;28;20430;-73
2023/05/12 06:58:59;;;;;;;6.83;6.23;;;15.80;1.00;;;;;;5075821;28;20174;-72
2023/05/12 07:01:30;;;;;;;6.90;6.20;;;15.80;1.00;;;;;;5054578;28;20591;-74
2023/05/12 07:03:56;;;;;;;8.70;6.53;;;15.80;1.00;;;;;;5079361;28;20455;-73
2023/05/12 07:06:23;;;;;;;8.40;7.13;;;15.90;1.00;;;;;;5092983;28;20664;-73
2023/05/12 07:08:49;;;;;;;7.33;6.67;;;16.00;1.00;;;;;;5064220;28;20424;-72
2023/05/12 07:11:19;;;;;;;8.87;6.20;;;16.10;1.00;;;;;;5071897;28;20396;-74
2023/05/12 07:14:15;;;;;;;8.67;6.07;;;16.20;1.00;;;;;;5073174;28;20486;-74
2023/05/12 07:17:27;;;;;;;8.53;7.63;;;16.30;1.00;;;;;;5076726;28;20393;-72
2023/05/12 07:19:53;;;;;;;5.70;5.20;;;16.50;1.00;;;;;;5051065;28;20870;-75
2023/05/12 07:22:53;;;;;;;7.43;6.53;;;16.60;1.00;;;;;;5054786;28;20432;-74
2023/05/12 07:25:20;;;;;;;7.17;6.03;;;16.90;1.00;;;;;;5051100;28;20465;-74
2023/05/12 07:27:49;;;;;;;6.90;6.37;;;17.00;1.00;;;;;;5056281;28;20421;-74
2023/05/12 07:30:39;;;;;;;6.20;5.70;;;17.00;1.00;;;;;;5055645;28;20413;-74
2023/05/12 07:33:01;;;;;;;9.50;6.03;;;17.00;1.00;;;;;;5059722;28;20456;-72
2023/05/12 07:35:27;;;;;;;7.33;5.50;;;17.10;1.00;;;;;;5062948;28;20430;-73
2023/05/12 07:37:53;;;;;;;8.43;5.93;;;17.00;1.00;;;;;;5059084;28;20793;-74
2023/05/12 07:40:22;;;;;;;8.70;6.17;;;17.00;1.00;;;;;;5058665;28;20429;-73
2023/05/12 07:42:47;;;;;;;6.57;6.07;;;17.00;1.00;;;;;;5075165;28;20448;-74
2023/05/12 07:45:21;;;;;;;5.07;4.67;;;17.20;1.00;;;;;;5070863;28;20479;-73
2023/05/12 07:47:49;;;;;;;6.00;5.47;;;17.20;1.00;;;;;;5056307;28;20167;-74
2023/05/12 07:50:19;;;;;;;6.07;5.47;;;17.30;1.00;;;;;;5074073;28;20416;-75
2023/05/12 07:52:50;;;;;;;5.87;5.27;;;17.40;1.00;;;;;;5068091;28;20440;-72
2023/05/12 07:55:19;;;;;;;5.70;5.17;;;17.50;1.00;;;;;;5056720;28;20519;-73
2023/05/12 07:57:49;;;;;;;6.27;5.77;;;17.60;1.00;;;;;;5055835;28;20428;-72
2023/05/12 08:00:15;;;;;;;6.07;5.30;;;17.70;1.00;;;;;;5074014;28;20432;-74
2023/05/12 08:02:41;;;;;;;9.97;5.60;;;17.90;1.00;;;;;;5077281;28;20534;-72
2023/05/12 08:05:09;;;;;;;6.00;5.50;;;18.00;1.00;;;;;;5084495;28;20823;-74
2023/05/12 08:07:36;;;;;;;15.23;5.83;;;18.10;1.00;;;;;;5082602;28;20420;-72
2023/05/12 08:10:04;;;;;;;7.77;6.43;;;18.20;1.00;;;;;;5074953;28;20912;-72
2023/05/12 08:12:30;;;;;;;6.07;5.57;;;18.20;1.00;;;;;;5074707;28;20944;-74
2023/05/12 08:14:55;;;;;;;5.73;5.23;;;18.30;1.00;;;;;;5074518;28;20437;-72
2023/05/12 08:17:21;;;;;;;7.90;5.93;;;18.40;1.00;;;;;;5083976;28;20431;-74
2023/05/12 08:19:47;;;;;;;6.73;6.00;;;18.50;1.00;;;;;;5075289;28;20178;-75
2023/05/12 08:22:18;;;;;;;6.37;5.77;;;18.60;1.00;;;;;;5072901;28;20463;-73
2023/05/12 08:25:16;;;;;;;8.40;5.43;;;18.70;1.00;;;;;;5055679;28;20683;-72
2023/05/12 08:27:54;;;;;;;7.47;5.70;;;18.70;1.00;;;;;;5038254;28;20481;-74
2023/05/12 08:30:25;;;;;;;8.07;5.77;;;18.80;1.00;;;;;;5054937;28;20821;-74
2023/05/12 08:32:50;;;;;;;6.17;5.67;;;18.90;1.00;;;;;;5037421;28;20511;-74
2023/05/12 08:35:40;;;;;;;7.40;5.20;;;19.00;1.00;;;;;;5037821;28;20417;-72
2023/05/12 08:38:07;;;;;;;5.83;5.13;;;19.30;1.00;;;;;;5067401;28;20451;-73
2023/05/12 08:40:42;;;;;;;9.53;5.80;;;19.50;1.00;;;;;;5070647;28;21174;-73
2023/05/12 08:43:44;;;;;;;6.47;5.87;;;19.60;1.00;;;;;;5075075;28;20522;-74
2023/05/12 08:46:17;;;;;;;7.43;5.37;;;19.70;1.00;;;;;;5088580;28;20460;-72
2023/05/12 08:49:31;;;;;;;10.80;5.10;;;19.90;1.00;;;;;;5068295;28;20934;-72
2023/05/12 08:52:00;;;;;;;5.10;4.70;;;20.00;1.00;;;;;;5055807;28;20991;-72
2023/05/12 08:54:29;;;;;;;4.90;4.50;;;19.90;1.00;;;;;;5074624;28;20471;-72
2023/05/12 08:57:49;;;;;;;6.53;5.03;;;19.90;1.00;;;;;;5065752;28;20461;-72
2023/05/12 09:00:20;;;;;;;6.30;5.10;;;20.10;1.00;;;;;;5033300;28;20436;-75
2023/05/12 09:02:47;;;;;;;5.13;4.63;;;20.10;1.00;;;;;;5054565;28;20444;-73
2023/05/12 09:05:13;;;;;;;6.13;4.53;;;20.20;1.00;;;;;;5049663;28;20460;-73
2023/05/12 09:07:45;;;;;;;4.63;4.23;;;20.40;1.00;;;;;;5070331;28;20805;-73
2023/05/12 09:10:18;;;;;;;4.27;3.93;;;20.60;1.00;;;;;;5053870;28;20473;-73
2023/05/12 09:12:57;;;;;;;5.67;4.73;;;20.60;1.00;;;;;;5081527;28;20503;-71
2023/05/12 09:15:30;;;;;;;4.73;4.43;;;20.80;1.00;;;;;;5054063;28;20424;-72
2023/05/12 09:18:40;;;;;;;5.17;3.90;;;20.90;1.00;;;;;;5082450;28;20427;-71
2023/05/12 09:21:09;;;;;;;7.30;4.27;;;20.90;1.00;;;;;;5062632;28;20436;-71
2023/05/12 09:23:35;;;;;;;9.70;4.87;;;21.00;1.00;;;;;;5067144;28;20536;-73
2023/05/12 09:26:11;;;;;;;5.00;4.60;;;21.10;1.00;;;;;;5058973;28;20595;-73
2023/05/12 09:28:40;;;;;;;4.43;4.03;;;21.10;1.00;;;;;;5053710;28;20460;-72
2023/05/12 09:31:17;;;;;;;14.10;4.50;;;21.20;1.00;;;;;;5065245;28;20822;-73
2023/05/12 09:34:01;;;;;;;4.47;4.10;;;21.70;1.00;;;;;;5075019;28;20503;-71
2023/05/12 09:36:27;;;;;;;4.10;3.80;;;21.80;1.00;;;;;;5069673;28;20443;-74
2023/05/12 09:38:59;;;;;;;4.17;3.87;;;22.00;1.00;;;;;;5075410;28;20960;-72
2023/05/12 09:41:28;;;;;;;4.20;3.90;;;22.20;1.00;;;;;;5062908;28;21007;-68
2023/05/12 09:43:54;;;;;;;6.47;4.20;;;22.20;1.00;;;;;;5054020;28;20448;-74
2023/05/12 09:46:20;;;;;;;7.70;4.13;;;22.10;1.00;;;;;;5057932;28;20463;-72
2023/05/12 09:48:47;;;;;;;6.03;3.70;;;22.30;1.00;;;;;;5053864;28;20397;-67
2023/05/12 09:51:19;;;;;;;7.97;4.10;;;22.30;1.00;;;;;;5072894;28;20428;-72
2023/05/12 09:53:45;;;;;;;4.37;3.60;;;22.50;99.90;;;;;;5091319;28;20422;-66
2023/05/12 09:56:15;;;;;;;3.67;3.37;;;22.90;1.00;;;;;;5071951;28;20426;-66
2023/05/12 09:58:43;;;;;;;5.87;4.00;;;23.30;99.90;;;;;;5075453;28;20803;-72
2023/05/12 10:01:11;;;;;;;4.10;3.70;;;23.50;99.90;;;;;;5051835;28;20492;-72
2023/05/12 10:03:38;;;;;;;3.87;3.40;;;23.80;99.90;;;;;;5093848;28;20472;-67
2023/05/12 10:06:08;;;;;;;6.50;3.40;;;23.90;99.90;;;;;;5086896;28;20466;-66
2023/05/12 10:08:46;;;;;;;4.90;2.70;;;24.00;99.90;;;;;;5091539;28;20410;-72
2023/05/12 10:11:12;;;;;;;5.73;3.30;;;24.30;99.90;;;;;;5066574;28;20423;-75
2023/05/12 10:13:38;;;;;;;5.97;3.50;;;24.40;99.90;;;;;;5053978;28;20453;-75
2023/05/12 10:16:05;;;;;;;3.73;3.13;;;24.50;99.90;;;;;;5068237;28;20439;-73
2023/05/12 10:18:32;;;;;;;4.83;3.17;;;24.40;99.90;;;;;;5070996;28;20428;-77
2023/05/12 10:20:59;;;;;;;8.60;3.40;;;24.50;99.90;;;;;;5066428;28;20948;-72
2023/05/12 10:23:26;;;;;;;7.30;3.50;;;24.90;99.90;;;;;;5055000;28;20965;-73
2023/05/12 10:26:00;;;;;;;3.73;3.43;;;25.40;99.90;;;;;;5043574;28;20826;-77
2023/05/12 10:28:27;;;;;;;6.13;3.70;;;25.50;99.90;;;;;;5054752;28;20458;-75
2023/05/12 10:30:55;;;;;;;4.60;3.67;;;24.90;99.90;;;;;;5051848;28;20995;-76
2023/05/12 10:33:41;;;;;;;3.20;2.90;;;24.30;99.90;;;;;;5052843;28;20480;-76
2023/05/12 10:36:49;;;;;;;9.33;4.10;;;23.70;99.90;;;;;;5032886;28;20438;-76
2023/05/12 10:39:17;;;;;;;4.43;3.70;;;23.80;99.90;;;;;;5026773;28;20492;-72
2023/05/12 10:41:43;;;;;;;3.40;3.20;;;23.60;99.90;;;;;;5041369;28;20425;-75
2023/05/12 10:44:09;;;;;;;3.03;2.83;;;23.90;99.90;;;;;;5052761;28;20452;-73
2023/05/12 10:47:09;;;;;;;7.93;3.60;;;23.90;99.90;;;;;;5054000;28;20460;-76
2023/05/12 10:49:40;;;;;;;4.73;3.80;;;24.20;99.90;;;;;;5057154;28;20471;-72
2023/05/12 10:52:06;;;;;;;5.30;3.00;;;24.50;99.90;;;;;;5070971;28;20425;-75
2023/05/12 10:54:43;;;;;;;4.57;3.40;;;25.00;99.90;;;;;;5051682;28;20479;-72
2023/05/12 10:57:19;;;;;;;3.70;3.40;;;25.20;99.90;;;;;;5072176;28;20902;-72
2023/05/12 10:59:56;;;;;;;4.70;3.07;;;24.60;99.90;;;;;;5060827;28;20431;-72
2023/05/12 11:02:28;;;;;;;4.00;3.33;;;24.40;99.90;;;;;;5050159;28;20445;-72
2023/05/12 11:04:59;;;;;;;3.70;3.40;;;24.50;99.90;;;;;;5066806;28;20879;-75
2023/05/12 11:07:27;;;;;;;3.43;3.13;;;24.40;99.90;;;;;;5092906;28;20438;-73
2023/05/12 11:09:55;;;;;;;4.10;3.20;;;24.80;99.90;;;;;;5059803;28;20439;-72
2023/05/12 11:12:21;;;;;;;3.37;3.17;;;24.60;99.90;;;;;;5072022;28;20416;-72
2023/05/12 11:14:50;;;;;;;5.40;3.60;;;24.40;99.90;;;;;;5072695;28;20461;-73
2023/05/12 11:17:16;;;;;;;5.07;3.60;;;24.70;99.90;;;;;;5061915;28;20404;-75
2023/05/12 11:19:48;;;;;;;4.93;3.57;;;25.20;99.90;;;;;;5056476;28;20437;-75
2023/05/12 11:22:20;;;;;;;4.63;4.03;;;25.50;99.90;;;;;;5054984;28;20181;-76
2023/05/12 11:24:47;;;;;;;7.73;4.00;;;25.10;99.90;;;;;;5070292;28;20539;-74
2023/05/12 11:27:17;;;;;;;4.17;3.50;;;24.50;99.90;;;;;;5071194;28;20451;-72
2023/05/12 11:29:45;;;;;;;3.67;3.37;;;24.60;99.90;;;;;;5072521;28;20460;-73
2023/05/12 11:32:14;;;;;;;4.40;3.73;;;24.80;99.90;;;;;;5082419;28;20432;-74
2023/05/12 11:34:40;;;;;;;6.57;3.87;;;24.90;99.90;;;;;;5074837;28;20426;-72
2023/05/12 11:37:06;;;;;;;4.90;3.20;;;24.80;99.90;;;;;;5050310;28;20465;-75
2023/05/12 11:39:32;;;;;;;5.77;3.40;;;24.60;99.90;;;;;;5034761;28;20522;-73
2023/05/12 11:42:07;;;;;;;3.87;3.47;;;24.70;99.90;;;;;;5061648;28;20227;-72
2023/05/12 11:44:48;;;;;;;3.80;3.50;;;25.00;99.90;;;;;;5075732;28;20443;-75
2023/05/12 11:47:15;;;;;;;3.23;3.03;;;25.50;99.90;;;;;;5065885;28;20921;-75
2023/05/12 11:49:57;;;;;;;3.73;3.43;;;25.50;99.90;;;;;;5072148;28;20496;-75
2023/05/12 11:52:23;;;;;;;9.43;3.93;;;25.10;99.90;;;;;;5049109;28;20459;-72
2023/05/12 11:54:57;;;;;;;4.67;3.33;;;25.10;99.90;;;;;;5067719;28;20494;-75
2023/05/12 11:57:26;;;;;;;4.97;3.60;;;26.20;99.90;;;;;;5071659;28;20420;-73
2023/05/12 12:00:08;;;;;;;3.60;3.30;;;27.10;99.90;;;;;;5071764;28;20424;-76
2023/05/12 12:02:38;;;;;;;4.00;3.70;;;28.10;99.90;;;;;;5075454;28;20467;-72
2023/05/12 12:05:14;;;;;;;3.40;3.20;;;28.30;99.90;;;;;;5064070;28;20842;-75
2023/05/12 12:07:41;;;;;;;4.53;3.50;;;27.80;99.90;;;;;;5055807;28;20560;-74
2023/05/12 12:10:11;;;;;;;3.93;3.63;;;27.10;99.90;;;;;;5054855;28;20405;-75
2023/05/12 12:12:37;;;;;;;5.77;3.53;;;26.50;99.90;;;;;;5043114;28;20445;-74
2023/05/12 12:15:05;;;;;;;9.03;4.43;;;26.70;99.90;;;;;;5055719;28;20949;-74
2023/05/12 12:17:30;;;;;;;5.67;4.03;;;26.40;99.90;;;;;;5056008;28;20538;-74
2023/05/12 12:19:56;;;;;;;4.57;3.13;;;26.30;99.90;;;;;;5075369;28;20933;-74
2023/05/12 12:22:22;;;;;;;5.30;3.37;;;26.00;99.90;;;;;;5074747;28;20193;-75
2023/05/12 12:24:50;;;;;;;5.67;4.23;;;26.00;99.90;;;;;;5069642;28;20472;-74
2023/05/12 12:27:16;;;;;;;9.30;4.10;;;26.20;99.90;;;;;;5057607;28;20520;-72
2023/05/12 12:29:42;;;;;;;6.40;3.63;;;26.60;99.90;;;;;;5059140;28;20437;-72
2023/05/12 12:32:10;;;;;;;6.17;3.80;;;26.80;99.90;;;;;;5053984;28;20204;-72
2023/05/12 12:34:36;;;;;;;6.40;5.53;;;26.70;99.90;;;;;;5064548;28;20189;-74
2023/05/12 12:37:01;;;;;;;4.13;3.73;;;26.70;99.90;;;;;;5054852;28;20863;-74
2023/05/12 12:39:27;;;;;;;4.20;3.80;;;26.60;99.90;;;;;;5073059;28;20674;-74
2023/05/12 12:41:53;;;;;;;5.93;4.73;;;26.40;99.90;;;;;;5065828;28;20247;-73
2023/05/12 12:44:19;;;;;;;5.30;3.97;;;25.90;99.90;;;;;;5058463;28;20433;-74
2023/05/12 12:46:45;;;;;;;4.57;4.17;;;25.70;99.90;;;;;;5055053;28;20429;-74
2023/05/12 12:52:14;;;;;;;4.80;4.20;;;25.20;99.90;;;;;;5060083;28;20265;-73
2023/05/12 12:54:40;;;;;;;9.40;4.47;;;25.30;99.90;;;;;;5054116;28;20429;-74
2023/05/12 12:57:06;;;;;;;9.23;4.70;;;25.00;99.90;;;;;;5074239;28;20424;-74
2023/05/12 12:59:32;;;;;;;4.80;3.90;;;24.70;99.90;;;;;;5075414;28;20522;-74
2023/05/12 13:01:58;;;;;;;10.50;4.43;;;24.20;99.90;;;;;;5071510;28;20261;-74
2023/05/12 13:04:25;;;;;;;6.90;3.60;;;24.10;99.90;;;;;;5056695;28;20483;-72
2023/05/12 13:06:50;;;;;;;4.43;4.03;;;24.10;99.90;;;;;;5053397;28;20913;-74
2023/05/12 13:09:17;;;;;;;6.80;4.87;;;23.50;99.90;;;;;;5066025;28;20421;-72
2023/05/12 13:11:53;;;;;;;;;;;;;;;;;;;;;
2023/05/12 13:14:20;;;;;;;4.83;4.43;;;22.60;99.90;;;;;;5054422;28;20441;-74
2023/05/12 13:16:46;;;;;;;6.37;4.70;;;22.60;99.90;;;;;;5059738;28;20437;-72
2023/05/12 13:19:12;;;;;;;5.97;5.03;;;22.50;99.90;;;;;;5036801;28;20417;-72
2023/05/12 13:21:38;;;;;;;4.87;4.20;;;22.50;99.90;;;;;;5053641;28;20425;-74